Time;durP1;ratioP1;P1;durP2;ratioP2;P2;SDS_P1;SDS_P2;PMS_P1;PMS_P2;Temp;Humidity;BMP_temperature;BMP_pressure;BME280_temperature;BME280_humidity;BME280_pressure;Samples;Min_cycle;Max_cycle;Signal;HPM_P1;HPM_P2
2021/11/26 00:00:10;;;;;;;55.35;27.75;;;;;;;;;;5074104;28;20090;-64
2021/11/26 00:02:37;;;;;;;57.53;30.55;;;;;;;;;;5074131;28;20025;-63
2021/11/26 00:05:04;;;;;;;53.55;28.27;;;;;;;;;;5074035;28;20116;-62
2021/11/26 00:07:31;;;;;;;56.22;29.42;;;;;;;;;;5073684;28;20488;-62
2021/11/26 00:09:57;;;;;;;51.30;27.83;;;;;;;;;;5073858;28;20040;-64
2021/11/26 00:12:53;;;;;;;54.30;28.35;;;;;;;;;;5023182;28;20056;-64
2021/11/26 00:15:35;;;;;;;49.55;28.58;;;;;;;;;;5033999;28;20455;-64
2021/11/26 00:18:08;;;;;;;47.75;26.23;;;;;;;;;;5033969;28;20068;-64
2021/11/26 00:20:35;;;;;;;44.88;25.23;;;;;;;;;;5015948;28;20485;-66
2021/11/26 00:23:01;;;;;;;50.42;27.27;;;;;;;;;;5016139;28;20028;-64
2021/11/26 00:25:28;;;;;;;50.20;26.25;;;;;;;;;;5033841;28;20022;-64
2021/11/26 00:27:54;;;;;;;54.85;26.90;;;;;;;;;;5033765;28;20528;-64
2021/11/26 00:30:20;;;;;;;45.13;25.08;;;;;;;;;;5033306;28;20037;-63
2021/11/26 00:32:46;;;;;;;49.88;26.85;;;;;;;;;;5033420;28;20029;-65
2021/11/26 00:35:13;;;;;;;45.75;25.73;;;;;;;;;;5033638;28;20049;-62
2021/11/26 00:37:39;;;;;;;48.78;25.80;;;;;;;;;;5015779;28;20026;-65
2021/11/26 00:40:05;;;;;;;50.45;25.70;;;;;;;;;;5015784;28;20127;-65
2021/11/26 00:42:32;;;;;;;49.55;26.13;;;;;;;;;;5033168;28;20060;-65
2021/11/26 00:44:58;;;;;;;42.55;23.77;;;;;;;;;;5033461;28;20029;-63
2021/11/26 00:47:26;;;;;;;54.42;26.65;;;;;;;;;;5033429;28;20025;-63
2021/11/26 00:49:52;;;;;;;44.08;24.50;;;;;;;;;;5033535;28;20437;-65
2021/11/26 00:52:19;;;;;;;50.88;26.95;;;;;;;;;;5033374;28;20033;-64
2021/11/26 00:54:45;;;;;;;55.53;25.65;;;;;;;;;;5033622;28;20065;-62
2021/11/26 00:57:12;;;;;;;51.75;26.10;;;;;;;;;;5033291;28;20408;-63
2021/11/26 00:59:41;;;;;;;46.40;25.38;;;;;;;;;;5033238;28;20033;-62
2021/11/26 01:02:08;;;;;;;47.10;25.63;;;;;;;;;;5033223;28;20484;-63
2021/11/26 01:04:34;;;;;;;44.45;24.00;;;;;;;;;;5033159;28;20451;-64
2021/11/26 01:07:01;;;;;;;44.67;23.33;;;;;;;;;;5032862;28;20411;-63
2021/11/26 01:09:27;;;;;;;46.25;23.85;;;;;;;;;;5015266;28;20065;-65
2021/11/26 01:11:53;;;;;;;48.47;25.05;;;;;;;;;;5033019;28;20045;-63
2021/11/26 01:14:20;;;;;;;43.42;23.92;;;;;;;;;;5033074;28;20489;-63
2021/11/26 01:16:46;;;;;;;52.10;24.00;;;;;;;;;;5047951;28;20029;-63
2021/11/26 01:19:13;;;;;;;45.03;22.50;;;;;;;;;;5032902;28;20030;-62
2021/11/26 01:21:39;;;;;;;43.30;22.20;;;;;;;;;;5032844;28;20041;-64
2021/11/26 01:24:05;;;;;;;43.92;22.52;;;;;;;;;;5048111;28;20172;-63
2021/11/26 01:26:31;;;;;;;42.65;23.83;;;;;;;;;;5048201;28;20040;-63
2021/11/26 01:28:58;;;;;;;46.08;23.88;;;;;;;;;;5032974;28;20159;-64
2021/11/26 01:31:24;;;;;;;45.30;23.73;;;;;;;;;;5034145;28;20117;-65
2021/11/26 01:33:52;;;;;;;50.53;24.00;;;;;;;;;;5036916;28;20021;-63
2021/11/26 01:36:18;;;;;;;40.95;23.17;;;;;;;;;;5036957;28;20041;-64
2021/11/26 01:38:45;;;;;;;45.25;23.83;;;;;;;;;;5019004;28;20036;-64
2021/11/26 01:41:11;;;;;;;48.22;26.10;;;;;;;;;;5036772;28;20115;-63
2021/11/26 01:43:38;;;;;;;46.47;24.50;;;;;;;;;;5036787;28;20141;-64
2021/11/26 01:46:09;;;;;;;45.85;25.83;;;;;;;;;;5036780;28;20096;-63
2021/11/26 01:48:35;;;;;;;51.80;25.15;;;;;;;;;;5018918;28;20359;-63
2021/11/26 01:51:02;;;;;;;57.35;28.30;;;;;;;;;;5036568;28;20032;-63
2021/11/26 01:53:28;;;;;;;56.17;28.48;;;;;;;;;;5018909;28;20021;-64
2021/11/26 01:55:54;;;;;;;45.58;24.80;;;;;;;;;;5036532;28;20108;-63
2021/11/26 01:58:21;;;;;;;49.97;24.33;;;;;;;;;;5036499;28;20548;-64
2021/11/26 02:00:49;;;;;;;42.08;22.50;;;;;;;;;;5036503;28;20510;-63
2021/11/26 02:03:15;;;;;;;40.05;22.90;;;;;;;;;;5036071;28;20060;-62
2021/11/26 02:05:42;;;;;;;35.33;20.40;;;;;;;;;;5036366;28;20518;-65
2021/11/26 02:08:08;;;;;;;36.85;21.23;;;;;;;;;;5051625;28;20549;-62
2021/11/26 02:10:34;;;;;;;37.55;21.67;;;;;;;;;;5035983;28;20037;-64
2021/11/26 02:13:01;;;;;;;36.05;20.02;;;;;;;;;;5055973;28;20029;-64
2021/11/26 02:15:31;;;;;;;39.10;19.70;;;;;;;;;;5056203;28;20029;-64
2021/11/26 02:17:59;;;;;;;36.53;20.25;;;;;;;;;;5071173;28;20072;-63
2021/11/26 02:20:27;;;;;;;36.25;21.33;;;;;;;;;;5071473;28;20040;-64
2021/11/26 02:22:54;;;;;;;40.13;20.67;;;;;;;;;;5071369;28;20125;-63
2021/11/26 02:25:22;;;;;;;32.03;19.65;;;;;;;;;;5071322;28;20496;-64
2021/11/26 02:27:48;;;;;;;35.15;20.85;;;;;;;;;;5056254;28;20453;-64
2021/11/26 02:30:18;;;;;;;33.03;20.42;;;;;;;;;;5071167;28;20037;-64
2021/11/26 02:33:01;;;;;;;36.42;20.88;;;;;;;;;;5055926;28;20032;-65
2021/11/26 02:35:28;;;;;;;42.25;21.92;;;;;;;;;;5071299;28;20382;-62
2021/11/26 02:37:55;;;;;;;32.72;19.40;;;;;;;;;;5071157;28;20116;-64
2021/11/26 02:40:22;;;;;;;37.47;20.15;;;;;;;;;;5071122;28;20123;-64
2021/11/26 02:42:50;;;;;;;36.47;20.55;;;;;;;;;;5055487;28;20029;-63
2021/11/26 02:45:17;;;;;;;33.15;18.80;;;;;;;;;;5055591;28;20025;-64
2021/11/26 02:47:43;;;;;;;35.03;19.40;;;;;;;;;;5070989;28;20458;-65
2021/11/26 02:50:10;;;;;;;30.45;17.90;;;;;;;;;;5055394;28;20127;-64
2021/11/26 02:52:37;;;;;;;35.10;19.50;;;;;;;;;;5055207;28;20424;-62
2021/11/26 02:55:05;;;;;;;34.55;19.48;;;;;;;;;;5070837;28;20029;-64
2021/11/26 02:57:31;;;;;;;34.60;19.38;;;;;;;;;;5070786;28;20079;-62
2021/11/26 02:59:57;;;;;;;36.13;19.70;;;;;;;;;;5055341;28;20056;-64
2021/11/26 03:02:24;;;;;;;33.40;18.27;;;;;;;;;;5055284;28;20013;-63
2021/11/26 03:04:50;;;;;;;28.20;16.27;;;;;;;;;;5055251;28;20466;-61
2021/11/26 03:07:16;;;;;;;28.27;16.95;;;;;;;;;;5070667;28;20044;-65
2021/11/26 03:09:43;;;;;;;30.08;17.45;;;;;;;;;;5055095;28;20032;-63
2021/11/26 03:12:09;;;;;;;29.65;17.10;;;;;;;;;;5054981;28;20114;-64
2021/11/26 03:14:37;;;;;;;33.03;18.92;;;;;;;;;;5055102;28;20036;-63
2021/11/26 03:17:03;;;;;;;30.70;18.35;;;;;;;;;;5055034;28;20541;-64
2021/11/26 03:19:30;;;;;;;31.88;17.88;;;;;;;;;;5054939;28;20028;-63
2021/11/26 03:21:56;;;;;;;30.45;16.33;;;;;;;;;;5054967;28;20075;-63
2021/11/26 03:24:22;;;;;;;28.63;16.95;;;;;;;;;;5054912;28;20029;-64
2021/11/26 03:26:49;;;;;;;31.65;17.55;;;;;;;;;;5054862;28;20031;-63
2021/11/26 03:29:15;;;;;;;35.90;16.08;;;;;;;;;;5070097;28;20470;-63
2021/11/26 03:31:41;;;;;;;29.30;17.27;;;;;;;;;;5054755;28;20029;-65
2021/11/26 03:34:13;;;;;;;29.33;15.50;;;;;;;;;;5054996;28;20467;-63
2021/11/26 03:36:42;;;;;;;;;;;;;;;;;;5070103;28;20463;-63
2021/11/26 03:39:09;;;;;;;34.63;17.20;;;;;;;;;;5054583;28;19916;-63
2021/11/26 03:41:35;;;;;;;29.45;16.92;;;;;;;;;;5054557;28;20457;-63
2021/11/26 03:44:01;;;;;;;31.23;17.50;;;;;;;;;;5054498;28;20021;-64
2021/11/26 03:46:28;;;;;;;30.88;16.48;;;;;;;;;;5054489;28;20037;-63
2021/11/26 03:48:54;;;;;;;30.33;16.27;;;;;;;;;;5054477;28;20036;-63
2021/11/26 03:51:20;;;;;;;30.50;16.38;;;;;;;;;;5054289;28;20025;-62
2021/11/26 03:53:50;;;;;;;27.13;16.35;;;;;;;;;;5069051;28;20110;-64
2021/11/26 03:56:16;;;;;;;26.95;16.25;;;;;;;;;;5054223;28;20542;-61
2021/11/26 03:58:43;;;;;;;31.35;16.42;;;;;;;;;;5054283;28;20095;-64
2021/11/26 04:01:09;;;;;;;33.13;16.25;;;;;;;;;;5069541;28;20037;-63
2021/11/26 04:03:35;;;;;;;26.58;16.13;;;;;;;;;;5053863;28;20358;-62
2021/11/26 04:06:01;;;;;;;28.38;15.38;;;;;;;;;;5054054;28;20049;-63
2021/11/26 04:08:27;;;;;;;29.63;16.35;;;;;;;;;;5054377;28;20060;-63
2021/11/26 04:10:54;;;;;;;30.08;17.15;;;;;;;;;;5068990;28;20044;-63
2021/11/26 04:13:20;;;;;;;32.38;17.65;;;;;;;;;;5054031;28;20040;-63
2021/11/26 04:15:47;;;;;;;25.95;16.13;;;;;;;;;;5053913;28;20354;-63
2021/11/26 04:18:13;;;;;;;30.23;16.08;;;;;;;;;;5053912;28;20027;-62
2021/11/26 04:20:43;;;;;;;30.30;17.02;;;;;;;;;;5053833;28;20397;-63
2021/11/26 04:23:09;;;;;;;28.58;16.38;;;;;;;;;;5053731;28;20082;-64
2021/11/26 04:25:35;;;;;;;26.55;15.27;;;;;;;;;;5053742;28;20024;-64
2021/11/26 04:28:02;;;;;;;27.75;14.95;;;;;;;;;;5053991;28;20086;-63
2021/11/26 04:30:29;;;;;;;27.25;15.80;;;;;;;;;;5053316;28;20108;-65
2021/11/26 04:32:55;;;;;;;25.65;14.57;;;;;;;;;;5053642;28;20032;-64
2021/11/26 04:35:22;;;;;;;25.00;15.30;;;;;;;;;;5053557;28;20545;-63
2021/11/26 04:37:48;;;;;;;27.52;14.88;;;;;;;;;;5053543;28;20029;-64
2021/11/26 04:40:15;;;;;;;25.63;15.80;;;;;;;;;;5053488;28;20032;-62
2021/11/26 04:42:42;;;;;;;24.70;14.05;;;;;;;;;;5053404;28;20047;-65
2021/11/26 04:45:10;;;;;;;27.15;14.52;;;;;;;;;;5053650;28;20394;-65
2021/11/26 04:47:41;;;;;;;30.27;14.43;;;;;;;;;;5053397;28;20033;-64
2021/11/26 04:50:08;;;;;;;23.17;14.10;;;;;;;;;;5053315;28;20028;-64
2021/11/26 04:52:35;;;;;;;23.20;15.00;;;;;;;;;;5068572;28;20029;-64
2021/11/26 04:55:01;;;;;;;26.52;14.90;;;;;;;;;;5053234;28;20025;-64
2021/11/26 04:57:27;;;;;;;27.08;14.75;;;;;;;;;;5053268;28;20100;-65
2021/11/26 04:59:55;;;;;;;25.55;14.43;;;;;;;;;;5068518;28;20486;-63
2021/11/26 05:02:21;;;;;;;21.80;13.30;;;;;;;;;;5068480;28;20470;-65
2021/11/26 05:04:47;;;;;;;29.17;15.35;;;;;;;;;;5068341;28;20036;-64
2021/11/26 05:07:15;;;;;;;24.70;14.88;;;;;;;;;;5067746;28;20390;-63
2021/11/26 05:09:42;;;;;;;27.02;15.20;;;;;;;;;;5053019;28;20029;-63
2021/11/26 05:12:08;;;;;;;26.00;14.48;;;;;;;;;;5068002;28;20504;-63
2021/11/26 05:14:35;;;;;;;25.70;14.30;;;;;;;;;;5053291;28;20477;-63
2021/11/26 05:17:01;;;;;;;25.52;15.38;;;;;;;;;;5068363;28;20533;-64
2021/11/26 05:19:28;;;;;;;27.50;14.45;;;;;;;;;;5052702;28;20025;-63
2021/11/26 05:21:54;;;;;;;22.92;14.73;;;;;;;;;;5068329;28;20083;-64
2021/11/26 05:24:20;;;;;;;24.65;14.50;;;;;;;;;;5053168;28;20112;-63
2021/11/26 05:26:46;;;;;;;22.20;13.85;;;;;;;;;;5053116;28;20021;-63
2021/11/26 05:29:13;;;;;;;24.90;14.40;;;;;;;;;;5052893;28;20040;-62
2021/11/26 05:31:39;;;;;;;25.48;14.70;;;;;;;;;;5052733;28;20505;-64
2021/11/26 05:34:06;;;;;;;28.55;15.57;;;;;;;;;;5053078;28;20206;-62
2021/11/26 05:36:33;;;;;;;33.38;16.52;;;;;;;;;;5052780;28;20481;-63
2021/11/26 05:38:59;;;;;;;59.70;24.63;;;;;;;;;;5052757;28;20033;-65
2021/11/26 05:41:25;;;;;;;60.92;24.77;;;;;;;;;;5052707;28;20100;-64
2021/11/26 05:43:51;;;;;;;76.32;28.25;;;;;;;;;;5052720;28;20108;-63
2021/11/26 05:46:18;;;;;;;72.95;27.55;;;;;;;;;;5052664;28;20033;-65
2021/11/26 05:48:44;;;;;;;71.93;30.83;;;;;;;;;;5068122;28;20025;-65
2021/11/26 05:51:10;;;;;;;48.28;23.10;;;;;;;;;;5052634;28;20557;-62
2021/11/26 05:53:36;;;;;;;37.95;18.85;;;;;;;;;;5068071;28;20099;-63
2021/11/26 05:56:03;;;;;;;34.70;18.58;;;;;;;;;;5052891;28;20480;-64
2021/11/26 05:58:30;;;;;;;43.90;22.40;;;;;;;;;;5052887;28;20029;-62
2021/11/26 06:00:56;;;;;;;38.45;21.30;;;;;;;;;;5052532;28;20029;-64
2021/11/26 06:03:22;;;;;;;34.25;17.42;;;;;;;;;;5052209;28;20115;-63
2021/11/26 06:05:49;;;;;;;30.98;18.83;;;;;;;;;;5067889;28;20053;-64
2021/11/26 06:08:15;;;;;;;31.80;17.23;;;;;;;;;;5052479;28;20480;-64
2021/11/26 06:10:41;;;;;;;44.15;19.90;;;;;;;;;;5052057;28;20174;-65
2021/11/26 06:13:09;;;;;;;41.90;18.60;;;;;;;;;;5052464;28;20764;-64
2021/11/26 06:15:35;;;;;;;39.60;17.58;;;;;;;;;;5052427;28;20039;-63
2021/11/26 06:18:01;;;;;;;36.40;17.77;;;;;;;;;;5054430;28;20104;-63
2021/11/26 06:20:28;;;;;;;35.65;18.02;;;;;;;;;;5055913;28;20418;-63
2021/11/26 06:22:54;;;;;;;40.08;18.67;;;;;;;;;;5071431;28;20029;-63
2021/11/26 06:25:21;;;;;;;30.42;15.35;;;;;;;;;;5070931;28;20025;-63
2021/11/26 06:27:48;;;;;;;37.17;19.83;;;;;;;;;;5055852;28;20017;-67
2021/11/26 06:30:15;;;;;;;34.75;17.33;;;;;;;;;;5071164;28;20500;-63
2021/11/26 06:32:43;;;;;;;32.78;16.52;;;;;;;;;;5055852;28;20482;-67
2021/11/26 06:35:09;;;;;;;51.65;25.65;;;;;;;;;;5055416;28;20474;-64
2021/11/26 06:37:36;;;;;;;31.95;16.38;;;;;;;;;;5055725;28;20162;-64
2021/11/26 06:40:03;;;;;;;30.05;16.73;;;;;;;;;;5055428;28;20033;-67
2021/11/26 06:42:29;;;;;;;38.83;18.58;;;;;;;;;;5055610;28;20029;-69
2021/11/26 06:44:55;;;;;;;39.72;19.08;;;;;;;;;;5055606;28;20079;-61
2021/11/26 06:47:21;;;;;;;47.35;21.55;;;;;;;;;;5055551;28;20466;-63
2021/11/26 06:49:48;;;;;;;35.13;18.77;;;;;;;;;;5055187;28;20021;-62
2021/11/26 06:52:15;;;;;;;33.25;18.40;;;;;;;;;;5053561;28;20036;-64
2021/11/26 06:54:41;;;;;;;40.13;20.05;;;;;;;;;;5053837;28;20430;-63
2021/11/26 06:57:08;;;;;;;40.85;19.70;;;;;;;;;;5055018;28;20420;-62
2021/11/26 06:59:34;;;;;;;30.77;17.77;;;;;;;;;;5037420;28;20065;-62
2021/11/26 07:02:00;;;;;;;28.98;16.95;;;;;;;;;;5055470;28;20055;-63
2021/11/26 07:04:27;;;;;;;30.55;17.35;;;;;;;;;;5055016;28;20021;-62
2021/11/26 07:06:53;;;;;;;32.28;17.98;;;;;;;;;;5054968;28;20036;-63
2021/11/26 07:09:20;;;;;;;39.88;20.40;;;;;;;;;;5054825;28;20488;-63
2021/11/26 07:11:46;;;;;;;30.65;18.00;;;;;;;;;;5046331;28;20044;-64
2021/11/26 07:14:12;;;;;;;33.13;19.48;;;;;;;;;;5074642;28;20020;-64
2021/11/26 07:16:38;;;;;;;32.78;18.42;;;;;;;;;;5074855;28;20032;-63
2021/11/26 07:19:05;;;;;;;35.72;19.58;;;;;;;;;;5074882;28;20151;-63
2021/11/26 07:21:31;;;;;;;37.22;20.33;;;;;;;;;;5074896;28;20025;-62
2021/11/26 07:23:57;;;;;;;40.65;20.27;;;;;;;;;;5074792;28;20027;-66
2021/11/26 07:26:23;;;;;;;54.28;23.90;;;;;;;;;;5074687;28;20374;-64
2021/11/26 07:28:50;;;;;;;37.03;19.73;;;;;;;;;;5073765;28;20025;-64
2021/11/26 07:31:16;;;;;;;39.35;20.17;;;;;;;;;;5074210;28;20548;-64
2021/11/26 07:33:43;;;;;;;41.58;20.38;;;;;;;;;;5056591;28;20017;-67
2021/11/26 07:36:10;;;;;;;31.92;19.23;;;;;;;;;;5074643;28;20044;-62
2021/11/26 07:38:36;;;;;;;31.50;18.92;;;;;;;;;;5074563;28;20017;-64
2021/11/26 07:41:03;;;;;;;36.50;19.08;;;;;;;;;;5056488;28;20052;-64
2021/11/26 07:43:29;;;;;;;32.60;17.67;;;;;;;;;;5074336;28;20111;-65
2021/11/26 07:45:57;;;;;;;34.25;17.55;;;;;;;;;;5074600;28;20118;-62
2021/11/26 07:48:23;;;;;;;27.30;17.05;;;;;;;;;;5072679;28;20027;-64
2021/11/26 07:50:49;;;;;;;29.83;16.90;;;;;;;;;;5035288;28;20405;-64
2021/11/26 07:53:16;;;;;;;26.42;17.33;;;;;;;;;;5053935;28;20036;-63
2021/11/26 07:55:42;;;;;;;39.08;21.23;;;;;;;;;;5054465;28;20025;-63
2021/11/26 07:58:09;;;;;;;35.03;20.08;;;;;;;;;;5054168;28;20423;-65
2021/11/26 08:00:36;;;;;;;41.17;21.10;;;;;;;;;;5053849;28;20401;-65
2021/11/26 08:03:02;;;;;;;39.50;22.08;;;;;;;;;;5054161;28;20025;-66
2021/11/26 08:05:30;;;;;;;42.70;19.90;;;;;;;;;;5054100;28;20467;-63
2021/11/26 08:07:57;;;;;;;30.38;18.38;;;;;;;;;;5053964;28;20105;-64
2021/11/26 08:10:23;;;;;;;30.85;16.55;;;;;;;;;;5053911;28;20491;-62
2021/11/26 08:12:49;;;;;;;24.27;15.32;;;;;;;;;;5035202;28;20056;-64
2021/11/26 08:15:17;;;;;;;29.38;18.33;;;;;;;;;;5033788;28;20116;-64
2021/11/26 08:17:43;;;;;;;33.03;17.45;;;;;;;;;;5015219;28;20072;-62
2021/11/26 08:20:10;;;;;;;82.38;38.10;;;;;;;;;;5033607;28;20116;-62
2021/11/26 08:22:36;;;;;;;100.55;47.20;;;;;;;;;;5033818;28;20021;-66
2021/11/26 08:25:02;;;;;;;119.53;54.17;;;;;;;;;;5015854;28;20021;-65
2021/11/26 08:27:31;;;;;;;133.85;52.33;;;;;;;;;;5015890;28;20190;-65
2021/11/26 08:29:57;;;;;;;186.32;69.30;;;;;;;;;;5033653;28;20083;-64
2021/11/26 08:32:23;;;;;;;184.50;68.43;;;;;;;;;;5033592;28;20036;-64
2021/11/26 08:34:49;;;;;;;159.00;60.88;;;;;;;;;;5033508;28;20083;-64
2021/11/26 08:37:16;;;;;;;150.45;54.85;;;;;;;;;;5015764;28;20035;-64
2021/11/26 08:39:42;;;;;;;177.90;61.08;;;;;;;;;;5033203;28;20036;-65
2021/11/26 08:42:08;;;;;;;155.00;55.92;;;;;;;;;;5015695;28;20574;-63
2021/11/26 08:44:34;;;;;;;182.65;62.58;;;;;;;;;;5033401;28;20116;-63
2021/11/26 08:47:01;;;;;;;213.30;73.13;;;;;;;;;;5015563;28;20025;-65
2021/11/26 08:49:27;;;;;;;204.32;73.50;;;;;;;;;;5033533;28;20100;-66
2021/11/26 08:51:55;;;;;;;212.57;72.10;;;;;;;;;;5033311;28;20033;-64
2021/11/26 08:54:24;;;;;;;233.15;71.63;;;;;;;;;;5033231;28;20075;-64
2021/11/26 08:56:54;;;;;;;265.02;82.15;;;;;;;;;;5033269;28;20034;-63
2021/11/26 08:59:20;;;;;;;216.77;71.38;;;;;;;;;;5033000;28;20029;-63
2021/11/26 09:01:47;;;;;;;150.07;50.53;;;;;;;;;;5031214;28;20466;-62
2021/11/26 09:04:14;;;;;;;126.55;44.72;;;;;;;;;;5013534;28;20032;-62
2021/11/26 09:06:40;;;;;;;162.45;51.35;;;;;;;;;;5052534;28;20056;-62
2021/11/26 09:09:07;;;;;;;230.77;71.35;;;;;;;;;;5052791;28;20021;-62
2021/11/26 09:11:33;;;;;;;259.75;80.57;;;;;;;;;;5052082;28;20059;-61
2021/11/26 09:14:00;;;;;;;243.63;77.95;;;;;;;;;;5052937;28;20112;-62
2021/11/26 09:16:27;;;;;;;256.55;76.68;;;;;;;;;;5052737;28;20025;-61
2021/11/26 09:18:53;;;;;;;298.08;92.43;;;;;;;;;;5034628;28;20059;-60
2021/11/26 09:21:19;;;;;;;238.07;77.32;;;;;;;;;;5052788;28;20068;-62
2021/11/26 09:23:48;;;;;;;115.22;44.20;;;;;;;;;;5052435;28;20021;-61
2021/11/26 09:26:14;;;;;;;147.85;50.67;;;;;;;;;;5052574;28;20036;-61
2021/11/26 09:28:40;;;;;;;154.35;54.50;;;;;;;;;;5052200;28;20021;-63
2021/11/26 09:31:06;;;;;;;186.60;65.93;;;;;;;;;;5052271;28;20150;-62
2021/11/26 09:33:35;;;;;;;153.82;55.65;;;;;;;;;;5052572;28;20040;-61
2021/11/26 09:36:04;;;;;;;106.85;42.25;;;;;;;;;;5052313;28;20025;-61
2021/11/26 09:38:30;;;;;;;122.25;48.85;;;;;;;;;;5052005;28;20021;-62
2021/11/26 09:40:57;;;;;;;91.97;40.17;;;;;;;;;;5052505;28;20024;-62
2021/11/26 09:43:23;;;;;;;63.50;27.58;;;;;;;;;;5034416;28;20032;-62
2021/11/26 09:45:50;;;;;;;48.03;24.48;;;;;;;;;;5052219;28;20158;-62
2021/11/26 09:48:16;;;;;;;36.78;20.05;;;;;;;;;;5052475;28;20119;-62
2021/11/26 09:50:42;;;;;;;40.97;21.30;;;;;;;;;;5034233;28;20546;-62
2021/11/26 09:53:17;;;;;;;37.75;20.60;;;;;;;;;;5055057;28;20037;-62
2021/11/26 09:55:44;;;;;;;29.67;17.23;;;;;;;;;;5056211;28;20029;-63
2021/11/26 09:58:12;;;;;;;38.35;20.88;;;;;;;;;;5037939;28;20108;-61
2021/11/26 10:00:38;;;;;;;36.08;20.35;;;;;;;;;;5056264;28;20078;-62
2021/11/26 10:03:04;;;;;;;38.95;21.52;;;;;;;;;;5056184;28;20090;-62
2021/11/26 10:05:34;;;;;;;41.47;23.42;;;;;;;;;;5055954;28;20025;-63
2021/11/26 10:08:01;;;;;;;31.50;18.60;;;;;;;;;;5037853;28;20111;-63
2021/11/26 10:10:29;;;;;;;37.90;22.42;;;;;;;;;;5056077;28;20032;-63
2021/11/26 10:13:03;;;;;;;32.33;18.80;;;;;;;;;;5052104;28;20041;-62
2021/11/26 10:15:31;;;;;;;35.30;19.23;;;;;;;;;;5056194;28;20057;-63
2021/11/26 10:18:05;;;;;;;33.13;19.73;;;;;;;;;;5038129;28;20032;-62
2021/11/26 10:20:31;;;;;;;34.20;17.95;;;;;;;;;;5056026;28;20024;-63
2021/11/26 10:22:58;;;;;;;34.75;19.38;;;;;;;;;;5038116;28;20056;-62
2021/11/26 10:25:25;;;;;;;30.42;17.55;;;;;;;;;;5037415;28;20538;-63
2021/11/26 10:27:57;;;;;;;33.20;17.27;;;;;;;;;;5055861;28;20029;-62
2021/11/26 10:30:25;;;;;;;35.15;19.92;;;;;;;;;;5055729;28;20029;-62
2021/11/26 10:32:57;;;;;;;34.55;20.23;;;;;;;;;;5055859;28;20036;-62
2021/11/26 10:35:27;;;;;;;32.03;18.67;;;;;;;;;;5055501;28;20043;-63
2021/11/26 10:38:07;;;;;;;40.42;19.75;;;;;;;;;;5052144;28;20014;-62
2021/11/26 10:40:35;;;;;;;32.33;18.45;;;;;;;;;;5037353;28;20033;-62
2021/11/26 10:43:03;;;;;;;32.00;18.50;;;;;;;;;;5055591;28;20029;-62
2021/11/26 10:48:53;;;;;;;33.03;19.27;;;;;;;;;;5055464;28;20043;-62
2021/11/26 10:59:27;;;;;;;179.43;81.00;;;;;;;;;;5055045;28;20116;-62
2021/11/26 11:01:53;;;;;;;189.93;86.57;;;;;;;;;;5037374;28;20124;-62
2021/11/26 11:04:22;;;;;;;142.25;71.22;;;;;;;;;;5055266;28;20112;-62
2021/11/26 11:07:01;;;;;;;79.22;43.35;;;;;;;;;;5055227;28;20021;-62
2021/11/26 11:09:37;;;;;;;73.70;39.63;;;;;;;;;;5055149;28;20021;-62
2021/11/26 11:12:04;;;;;;;59.80;34.38;;;;;;;;;;5055079;28;20053;-62
2021/11/26 11:14:30;;;;;;;57.08;30.05;;;;;;;;;;5055065;28;20027;-64
2021/11/26 11:16:57;;;;;;;53.70;25.15;;;;;;;;;;5054793;28;20108;-62
2021/11/26 11:19:24;;;;;;;42.65;24.75;;;;;;;;;;5036810;28;20049;-64
2021/11/26 11:21:51;;;;;;;46.90;27.58;;;;;;;;;;5036974;28;20035;-62
2021/11/26 11:24:17;;;;;;;57.95;27.33;;;;;;;;;;5055091;28;20104;-63
2021/11/26 11:26:48;;;;;;;64.15;27.67;;;;;;;;;;5054830;28;20028;-63
2021/11/26 11:29:25;;;;;;;49.95;26.35;;;;;;;;;;5054899;28;20056;-63
2021/11/26 11:31:52;;;;;;;52.38;23.92;;;;;;;;;;5054984;28;20032;-64
2021/11/26 11:34:21;;;;;;;49.97;26.27;;;;;;;;;;5022880;28;20208;-63
2021/11/26 11:36:48;;;;;;;48.40;27.95;;;;;;;;;;5034479;28;20021;-63
2021/11/26 11:39:14;;;;;;;63.22;31.95;;;;;;;;;;5034494;28;20076;-64
2021/11/26 11:41:47;;;;;;;58.35;28.15;;;;;;;;;;5034824;28;20140;-63
2021/11/26 11:44:28;;;;;;;32.45;18.88;;;;;;;;;;5033010;28;20026;-63
2021/11/26 11:46:55;;;;;;;32.55;18.13;;;;;;;;;;5034407;28;20029;-63
2021/11/26 11:49:32;;;;;;;38.35;19.30;;;;;;;;;;5034687;28;20370;-62
2021/11/26 11:51:59;;;;;;;33.20;17.08;;;;;;;;;;5034269;28;20025;-62
2021/11/26 11:54:35;;;;;;;32.40;17.00;;;;;;;;;;5034166;28;20160;-63
2021/11/26 11:57:02;;;;;;;33.58;17.98;;;;;;;;;;5032601;28;20026;-63
2021/11/26 11:59:31;;;;;;;31.67;19.05;;;;;;;;;;5033686;28;20025;-62
2021/11/26 12:01:58;;;;;;;29.20;17.67;;;;;;;;;;5034178;28;20025;-63
2021/11/26 12:04:25;;;;;;;30.35;17.42;;;;;;;;;;5034120;28;20026;-64
2021/11/26 12:06:52;;;;;;;30.08;17.80;;;;;;;;;;5033922;28;20472;-62
2021/11/26 12:09:22;;;;;;;32.17;19.38;;;;;;;;;;5032469;28;20513;-61
2021/11/26 12:11:54;;;;;;;29.20;16.45;;;;;;;;;;5041524;28;20057;-62
2021/11/26 12:14:21;;;;;;;33.50;19.27;;;;;;;;;;5053374;28;20404;-62
2021/11/26 12:16:49;;;;;;;41.92;19.85;;;;;;;;;;5052066;28;20167;-62
2021/11/26 12:19:20;;;;;;;29.27;18.08;;;;;;;;;;5053652;28;20032;-61
2021/11/26 12:21:47;;;;;;;31.75;18.42;;;;;;;;;;5053661;28;20115;-62
2021/11/26 12:24:16;;;;;;;34.53;19.67;;;;;;;;;;5053577;28;20021;-62
2021/11/26 12:26:53;;;;;;;32.92;18.10;;;;;;;;;;5053513;28;20143;-61
2021/11/26 12:29:22;;;;;;;34.58;19.17;;;;;;;;;;5053256;28;20440;-63
2021/11/26 12:31:48;;;;;;;34.03;18.38;;;;;;;;;;5052182;28;20072;-61
2021/11/26 12:34:16;;;;;;;29.05;17.20;;;;;;;;;;5051770;28;20024;-62
2021/11/26 12:36:48;;;;;;;31.90;17.13;;;;;;;;;;5053168;28;20054;-63
2021/11/26 12:39:14;;;;;;;;;;;;;;;;;;5052743;28;20029;-62
2021/11/26 12:41:42;;;;;;;31.38;17.83;;;;;;;;;;5052372;28;20373;-65
2021/11/26 12:44:12;;;;;;;26.48;16.52;;;;;;;;;;5051432;28;20031;-61
2021/11/26 12:46:40;;;;;;;28.13;16.87;;;;;;;;;;5036450;28;20060;-64
2021/11/26 12:51:50;;;;;;;27.58;16.77;;;;;;;;;;5051783;28;20134;-64
2021/11/26 12:54:25;;;;;;;24.02;14.80;;;;;;;;;;5051449;28;20025;-64
2021/11/26 12:56:51;;;;;;;26.23;15.88;;;;;;;;;;5050828;28;20117;-62
2021/11/26 12:59:28;;;;;;;25.30;15.48;;;;;;;;;;5034070;28;20587;-63
2021/11/26 13:01:54;;;;;;;26.30;14.80;;;;;;;;;;5052889;28;20037;-62
2021/11/26 13:04:20;;;;;;;24.30;14.68;;;;;;;;;;5053131;28;20025;-63
2021/11/26 13:06:48;;;;;;;24.70;14.88;;;;;;;;;;5052760;28;20104;-62
2021/11/26 13:09:14;;;;;;;24.30;14.55;;;;;;;;;;5052523;28;20481;-61
2021/11/26 13:11:41;;;;;;;22.90;13.38;;;;;;;;;;5052406;28;20055;-63
2021/11/26 13:14:08;;;;;;;22.48;13.27;;;;;;;;;;5052905;28;20024;-65
2021/11/26 13:16:35;;;;;;;25.67;14.63;;;;;;;;;;5052951;28;20032;-62
2021/11/26 13:19:01;;;;;;;28.50;14.20;;;;;;;;;;5052882;28;20086;-62
2021/11/26 13:21:28;;;;;;;26.00;14.93;;;;;;;;;;5035057;28;20025;-63
2021/11/26 13:23:55;;;;;;;26.33;14.60;;;;;;;;;;5052795;28;20021;-62
2021/11/26 13:26:21;;;;;;;32.45;15.88;;;;;;;;;;5052128;28;20343;-62
2021/11/26 13:28:50;;;;;;;29.42;13.75;;;;;;;;;;5052567;28;20039;-61
2021/11/26 13:31:18;;;;;;;30.50;15.18;;;;;;;;;;5052772;28;20370;-63
2021/11/26 13:33:45;;;;;;;27.20;14.88;;;;;;;;;;5052495;28;20119;-62
2021/11/26 13:36:13;;;;;;;28.55;15.55;;;;;;;;;;5034621;28;20129;-62
2021/11/26 13:38:42;;;;;;;32.20;15.68;;;;;;;;;;5052649;28;20021;-62
2021/11/26 13:41:14;;;;;;;26.95;15.07;;;;;;;;;;5052669;28;20040;-62
2021/11/26 13:43:42;;;;;;;30.48;16.17;;;;;;;;;;5052650;28;20017;-63
2021/11/26 13:46:16;;;;;;;35.55;17.58;;;;;;;;;;5052639;28;20112;-62
2021/11/26 13:48:43;;;;;;;26.60;15.35;;;;;;;;;;5052662;28;20473;-62
2021/11/26 13:51:14;;;;;;;31.10;17.77;;;;;;;;;;5052467;28;20043;-62
2021/11/26 13:53:44;;;;;;;35.40;18.05;;;;;;;;;;5052309;28;20480;-62
2021/11/26 13:56:11;;;;;;;28.48;17.08;;;;;;;;;;5052446;28;20026;-63
2021/11/26 13:58:37;;;;;;;32.55;16.95;;;;;;;;;;5052502;28;20021;-64
2021/11/26 14:01:03;;;;;;;30.30;16.98;;;;;;;;;;5034530;28;20044;-63
2021/11/26 14:03:34;;;;;;;30.73;16.17;;;;;;;;;;5052509;28;20036;-62
2021/11/26 14:06:14;;;;;;;35.45;18.30;;;;;;;;;;5052399;28;20369;-62
2021/11/26 14:08:41;;;;;;;35.00;18.85;;;;;;;;;;5052374;28;20493;-63
2021/11/26 14:11:08;;;;;;;40.70;19.35;;;;;;;;;;5034069;28;20037;-62
2021/11/26 14:13:35;;;;;;;38.28;20.00;;;;;;;;;;5052278;28;20382;-63
2021/11/26 14:16:02;;;;;;;31.25;17.38;;;;;;;;;;5034320;28;20067;-63
2021/11/26 14:18:48;;;;;;;35.20;19.00;;;;;;;;;;5052165;28;20017;-63
2021/11/26 14:21:16;;;;;;;41.53;21.30;;;;;;;;;;5052203;28;20116;-64
2021/11/26 14:23:52;;;;;;;35.53;20.10;;;;;;;;;;5034384;28;20368;-63
2021/11/26 14:26:18;;;;;;;38.13;20.38;;;;;;;;;;5052357;28;20017;-63
2021/11/26 14:28:45;;;;;;;41.53;22.10;;;;;;;;;;5052567;28;20027;-63
2021/11/26 14:31:12;;;;;;;58.80;31.52;;;;;;;;;;5052121;28;20055;-62